Main page
METAR-TAF:

METAR-TAF

Airports :

Henri Coandă International Airport

Bucharest, Romania

latitude: 44-33N, longitude: 026-06E, elevation: 95 m

Current weather observation

The report was made 21 minutes ago, at 01:00 UTC
Wind 3 kt from the North/Northeast
Temperature 2°C
Humidity 75%
Pressure 1024 hPa
Visibility 10 km or more
no clouds below 1500 m and no cumulonimbus

METAR: LROP 110100Z 02003KT CAVOK 02/M02 Q1024 NOSIG

Time: 04:21 (01:21 UTC)

Forecast

The report was made 2 hours and 21 minutes ago, at 23:00 UTC
Forecast valid from 11 at 00 UTC to 12 at 00 UTC
Wind 4 kt from variable directions
Visibility 10 km or more
no clouds below 1500 m and no cumulonimbus

TAF: LROP 102300Z 1100/1200 VRB04KT CAVOK

Weather observations and forecasts of more than 4000 airports (METAR and TAF reports).

The available stations are represented by yellow and red dots on the map.

Hover mouse over dot to see the name of the station.

Then click to see weather observations and forecasts.

To change the map : click on the green buttons with a black cross to zoom in, on the green button with a dash to zoom out, or on the green arrows for adjacent maps.


METAR-TAF: